sensor_id;sensor_type;location;lat;lon;timestamp;pressure;altitude;pressure_sealevel;temperature;humidity
45888;BME280;31595;51.418;7.572;2023-05-07T00:00:04;100301.88;;;15.63;88.60
45888;BME280;31595;51.418;7.572;2023-05-07T00:02:33;100303.88;;;15.63;87.63
45888;BME280;31595;51.418;7.572;2023-05-07T00:05:01;100306.56;;;15.59;87.99
45888;BME280;31595;51.418;7.572;2023-05-07T00:07:29;100314.28;;;15.50;87.45
45888;BME280;31595;51.418;7.572;2023-05-07T00:09:57;100309.22;;;15.56;88.29
45888;BME280;31595;51.418;7.572;2023-05-07T00:12:25;100317.66;;;15.56;88.74
45888;BME280;31595;51.418;7.572;2023-05-07T00:14:52;100314.38;;;15.54;87.24
45888;BME280;31595;51.418;7.572;2023-05-07T00:17:19;100310.66;;;15.50;87.88
45888;BME280;31595;51.418;7.572;2023-05-07T00:19:47;100306.22;;;15.49;88.78
45888;BME280;31595;51.418;7.572;2023-05-07T00:22:14;100312.63;;;15.49;88.65
45888;BME280;31595;51.418;7.572;2023-05-07T00:24:42;100314.63;;;15.49;88.61
45888;BME280;31595;51.418;7.572;2023-05-07T00:27:10;100323.53;;;15.51;87.54
45888;BME280;31595;51.418;7.572;2023-05-07T00:29:38;100318.38;;;15.53;88.43
45888;BME280;31595;51.418;7.572;2023-05-07T00:32:05;100316.03;;;15.55;88.46
45888;BME280;31595;51.418;7.572;2023-05-07T00:34:36;100319.66;;;15.55;88.45
45888;BME280;31595;51.418;7.572;2023-05-07T00:37:03;100319.31;;;15.57;88.33
45888;BME280;31595;51.418;7.572;2023-05-07T00:39:30;100316.97;;;15.59;88.23
45888;BME280;31595;51.418;7.572;2023-05-07T00:41:57;100308.19;;;15.60;88.63
45888;BME280;31595;51.418;7.572;2023-05-07T00:44:26;100312.75;;;15.65;88.41
45888;BME280;31595;51.418;7.572;2023-05-07T00:46:54;100297.91;;;15.65;88.50
45888;BME280;31595;51.418;7.572;2023-05-07T00:49:21;100304.69;;;15.63;88.64
45888;BME280;31595;51.418;7.572;2023-05-07T00:51:49;100310.75;;;15.66;88.08
45888;BME280;31595;51.418;7.572;2023-05-07T00:54:17;100305.16;;;15.66;87.63
45888;BME280;31595;51.418;7.572;2023-05-07T00:56:45;100302.91;;;15.71;87.89
45888;BME280;31595;51.418;7.572;2023-05-07T00:59:13;100304.06;;;15.70;88.47
45888;BME280;31595;51.418;7.572;2023-05-07T01:01:41;100304.44;;;15.69;88.61
45888;BME280;31595;51.418;7.572;2023-05-07T01:04:09;100305.25;;;15.69;88.13
45888;BME280;31595;51.418;7.572;2023-05-07T01:06:36;100297.66;;;15.70;87.81
45888;BME280;31595;51.418;7.572;2023-05-07T01:09:04;100309.03;;;15.73;87.93
45888;BME280;31595;51.418;7.572;2023-05-07T01:11:31;100301.53;;;15.65;88.31
45888;BME280;31595;51.418;7.572;2023-05-07T01:13:59;100301.53;;;15.65;87.54
45888;BME280;31595;51.418;7.572;2023-05-07T01:16:27;100291.91;;;15.66;88.15
45888;BME280;31595;51.418;7.572;2023-05-07T01:18:55;100287.59;;;15.69;88.52
45888;BME280;31595;51.418;7.572;2023-05-07T01:21:25;100291.56;;;15.68;88.48
45888;BME280;31595;51.418;7.572;2023-05-07T01:23:54;100288.41;;;15.69;87.99
45888;BME280;31595;51.418;7.572;2023-05-07T01:26:22;100282.69;;;15.66;87.81
45888;BME280;31595;51.418;7.572;2023-05-07T01:28:49;100293.91;;;15.66;87.55
45888;BME280;31595;51.418;7.572;2023-05-07T01:31:17;100285.94;;;15.68;87.46
45888;BME280;31595;51.418;7.572;2023-05-07T01:33:46;100281.41;;;15.63;87.28
45888;BME280;31595;51.418;7.572;2023-05-07T01:36:17;100281.63;;;15.58;86.75
45888;BME280;31595;51.418;7.572;2023-05-07T01:38:46;100283.50;;;15.54;88.09
45888;BME280;31595;51.418;7.572;2023-05-07T01:41:15;100285.16;;;15.55;87.12
45888;BME280;31595;51.418;7.572;2023-05-07T01:43:47;100285.63;;;15.57;88.10
45888;BME280;31595;51.418;7.572;2023-05-07T01:46:17;100285.63;;;15.57;87.71
45888;BME280;31595;51.418;7.572;2023-05-07T01:48:45;100288.78;;;15.55;88.23
45888;BME280;31595;51.418;7.572;2023-05-07T01:51:12;100292.75;;;15.54;87.50
45888;BME280;31595;51.418;7.572;2023-05-07T01:53:40;100287.97;;;15.55;88.35
45888;BME280;31595;51.418;7.572;2023-05-07T01:56:09;100292.84;;;15.58;88.41
45888;BME280;31595;51.418;7.572;2023-05-07T01:58:37;100287.97;;;15.55;88.74
45888;BME280;31595;51.418;7.572;2023-05-07T02:01:05;100285.16;;;15.55;88.11
45888;BME280;31595;51.418;7.572;2023-05-07T02:03:32;100288.69;;;15.52;87.69
45888;BME280;31595;51.418;7.572;2023-05-07T02:05:59;100295.91;;;15.53;87.48
45888;BME280;31595;51.418;7.572;2023-05-07T02:08:27;100295.91;;;15.53;88.68
45888;BME280;31595;51.418;7.572;2023-05-07T02:10:55;100289.13;;;15.54;88.23
45888;BME280;31595;51.418;7.572;2023-05-07T02:13:25;100290.31;;;15.53;88.27
45888;BME280;31595;51.418;7.572;2023-05-07T02:15:53;100282.34;;;15.55;88.61
45888;BME280;31595;51.418;7.572;2023-05-07T02:18:21;100287.75;;;15.48;88.28
45888;BME280;31595;51.418;7.572;2023-05-07T02:20:48;100284.00;;;15.43;89.29
45888;BME280;31595;51.418;7.572;2023-05-07T02:23:15;100281.41;;;15.38;88.94
45888;BME280;31595;51.418;7.572;2023-05-07T02:25:42;100284.94;;;15.35;88.12
45888;BME280;31595;51.418;7.572;2023-05-07T02:28:10;100286.00;;;15.31;88.87
45888;BME280;31595;51.418;7.572;2023-05-07T02:30:37;100285.41;;;15.25;88.62
45888;BME280;31595;51.418;7.572;2023-05-07T02:33:06;100289.38;;;15.24;88.85
45888;BME280;31595;51.418;7.572;2023-05-07T02:35:34;100285.53;;;15.16;87.97
45888;BME280;31595;51.418;7.572;2023-05-07T02:38:02;100280.03;;;15.08;87.89
45888;BME280;31595;51.418;7.572;2023-05-07T02:40:29;100280.38;;;15.06;87.88
45888;BME280;31595;51.418;7.572;2023-05-07T02:42:59;100276.50;;;14.98;88.18
45888;BME280;31595;51.418;7.572;2023-05-07T02:45:28;100277.09;;;14.92;87.71
45888;BME280;31595;51.418;7.572;2023-05-07T02:47:56;100277.78;;;14.89;87.57
45888;BME280;31595;51.418;7.572;2023-05-07T02:50:24;100278.47;;;14.86;88.38
45888;BME280;31595;51.418;7.572;2023-05-07T02:52:52;100279.75;;;14.76;87.46
45888;BME280;31595;51.418;7.572;2023-05-07T02:55:23;100276.94;;;14.76;88.13
45888;BME280;31595;51.418;7.572;2023-05-07T02:57:51;100273.44;;;14.79;88.37
45888;BME280;31595;51.418;7.572;2023-05-07T03:00:20;100275.31;;;14.75;87.78
45888;BME280;31595;51.418;7.572;2023-05-07T03:02:47;100268.28;;;14.69;87.04
45888;BME280;31595;51.418;7.572;2023-05-07T03:05:15;100261.72;;;14.65;87.93
45888;BME280;31595;51.418;7.572;2023-05-07T03:07:44;100265.25;;;14.61;87.59
45888;BME280;31595;51.418;7.572;2023-05-07T03:10:12;100274.00;;;14.60;88.32
45888;BME280;31595;51.418;7.572;2023-05-07T03:12:39;100270.38;;;14.59;88.94
45888;BME280;31595;51.418;7.572;2023-05-07T03:15:07;100272.72;;;14.57;88.59
45888;BME280;31595;51.418;7.572;2023-05-07T03:17:38;100274.34;;;14.58;87.74
45888;BME280;31595;51.418;7.572;2023-05-07T03:20:06;100270.06;;;14.52;89.24
45888;BME280;31595;51.418;7.572;2023-05-07T03:22:35;100273.34;;;14.54;88.83
45888;BME280;31595;51.418;7.572;2023-05-07T03:25:04;100278.97;;;14.54;89.38
45888;BME280;31595;51.418;7.572;2023-05-07T03:27:35;100274.16;;;14.55;88.99
45888;BME280;31595;51.418;7.572;2023-05-07T03:30:02;100277.84;;;14.55;89.22
45888;BME280;31595;51.418;7.572;2023-05-07T03:32:30;100272.88;;;14.52;88.20
45888;BME280;31595;51.418;7.572;2023-05-07T03:34:57;100272.41;;;14.50;88.56
45888;BME280;31595;51.418;7.572;2023-05-07T03:37:24;100264.72;;;14.47;87.67
45888;BME280;31595;51.418;7.572;2023-05-07T03:39:51;100275.06;;;14.47;87.70
45888;BME280;31595;51.418;7.572;2023-05-07T03:42:20;100269.00;;;14.45;88.88
45888;BME280;31595;51.418;7.572;2023-05-07T03:44:47;100274.25;;;14.46;87.84
45888;BME280;31595;51.418;7.572;2023-05-07T03:47:14;100276.50;;;14.53;89.33
45888;BME280;31595;51.418;7.572;2023-05-07T03:49:42;100272.53;;;14.54;89.31
45888;BME280;31595;51.418;7.572;2023-05-07T03:52:09;100288.00;;;14.60;89.36
45888;BME280;31595;51.418;7.572;2023-05-07T03:54:36;100280.06;;;14.62;88.32
45888;BME280;31595;51.418;7.572;2023-05-07T03:57:03;100291.38;;;14.66;89.65
45888;BME280;31595;51.418;7.572;2023-05-07T03:59:32;100289.75;;;14.65;88.13
45888;BME280;31595;51.418;7.572;2023-05-07T04:01:59;100295.72;;;14.63;89.36
45888;BME280;31595;51.418;7.572;2023-05-07T04:04:27;100290.25;;;14.67;88.69
45888;BME280;31595;51.418;7.572;2023-05-07T04:06:58;100293.50;;;14.69;88.18
45888;BME280;31595;51.418;7.572;2023-05-07T04:09:26;100297.47;;;14.68;87.68
45888;BME280;31595;51.418;7.572;2023-05-07T04:11:53;100297.13;;;14.69;87.93
45888;BME280;31595;51.418;7.572;2023-05-07T04:14:20;100296.31;;;14.69;87.74
45888;BME280;31595;51.418;7.572;2023-05-07T04:16:49;100294.81;;;14.71;87.57
45888;BME280;31595;51.418;7.572;2023-05-07T04:19:16;100298.06;;;14.73;88.52
45888;BME280;31595;51.418;7.572;2023-05-07T04:21:43;100302.63;;;14.78;87.44
45888;BME280;31595;51.418;7.572;2023-05-07T04:24:11;100305.56;;;14.81;88.29
45888;BME280;31595;51.418;7.572;2023-05-07T04:26:38;100300.09;;;14.85;87.83
45888;BME280;31595;51.418;7.572;2023-05-07T04:29:08;100299.28;;;14.85;87.93
45888;BME280;31595;51.418;7.572;2023-05-07T04:31:35;100295.44;;;14.89;87.51
45888;BME280;31595;51.418;7.572;2023-05-07T04:34:03;100298.25;;;14.89;86.44
45888;BME280;31595;51.418;7.572;2023-05-07T04:36:31;100300.78;;;14.82;86.70
45888;BME280;31595;51.418;7.572;2023-05-07T04:38:59;100303.00;;;14.89;86.86
45888;BME280;31595;51.418;7.572;2023-05-07T04:41:27;100294.59;;;14.89;86.42
45888;BME280;31595;51.418;7.572;2023-05-07T04:43:54;100302.94;;;14.97;86.31
45888;BME280;31595;51.418;7.572;2023-05-07T04:46:22;100307.81;;;15.00;86.38
45888;BME280;31595;51.418;7.572;2023-05-07T04:48:53;100300.81;;;15.07;86.56
45888;BME280;31595;51.418;7.572;2023-05-07T04:51:24;100307.38;;;15.11;86.21
45888;BME280;31595;51.418;7.572;2023-05-07T04:53:52;100308.44;;;15.18;86.02
45888;BME280;31595;51.418;7.572;2023-05-07T04:56:19;100315.81;;;15.23;86.16
45888;BME280;31595;51.418;7.572;2023-05-07T04:58:46;100312.06;;;15.31;85.93
45888;BME280;31595;51.418;7.572;2023-05-07T05:01:14;100315.09;;;15.38;86.32
45888;BME280;31595;51.418;7.572;2023-05-07T05:03:41;100320.59;;;15.47;86.19
45888;BME280;31595;51.418;7.572;2023-05-07T05:06:08;100319.19;;;15.53;85.08
45888;BME280;31595;51.418;7.572;2023-05-07T05:08:37;100315.56;;;15.65;84.89
45888;BME280;31595;51.418;7.572;2023-05-07T05:11:04;100315.13;;;15.75;85.28
45888;BME280;31595;51.418;7.572;2023-05-07T05:13:31;100313.56;;;15.90;84.49
45888;BME280;31595;51.418;7.572;2023-05-07T05:15:59;100305.47;;;16.01;84.69
45888;BME280;31595;51.418;7.572;2023-05-07T05:18:26;100316.19;;;16.11;84.29
45888;BME280;31595;51.418;7.572;2023-05-07T05:20:56;100312.44;;;16.19;84.24
45888;BME280;31595;51.418;7.572;2023-05-07T05:23:27;100312.00;;;16.33;84.06
45888;BME280;31595;51.418;7.572;2023-05-07T05:25:57;100313.97;;;16.45;82.95
45888;BME280;31595;51.418;7.572;2023-05-07T05:28:24;100313.81;;;16.54;82.95
45888;BME280;31595;51.418;7.572;2023-05-07T05:30:51;100312.19;;;16.69;83.21
45888;BME280;31595;51.418;7.572;2023-05-07T05:33:19;100320.72;;;16.84;83.10
45888;BME280;31595;51.418;7.572;2023-05-07T05:35:49;100304.91;;;16.96;82.70
45888;BME280;31595;51.418;7.572;2023-05-07T05:38:20;100313.19;;;17.04;82.65
45888;BME280;31595;51.418;7.572;2023-05-07T05:40:47;100316.66;;;17.14;81.93
45888;BME280;31595;51.418;7.572;2023-05-07T05:43:16;100314.09;;;17.24;80.78
45888;BME280;31595;51.418;7.572;2023-05-07T05:45:43;100322.25;;;17.30;81.26
45888;BME280;31595;51.418;7.572;2023-05-07T05:48:11;100322.25;;;17.45;81.26
45888;BME280;31595;51.418;7.572;2023-05-07T05:50:38;100323.25;;;17.53;80.47
45888;BME280;31595;51.418;7.572;2023-05-07T05:53:07;100323.13;;;17.65;80.10
45888;BME280;31595;51.418;7.572;2023-05-07T05:55:42;100328.50;;;17.71;79.76
45888;BME280;31595;51.418;7.572;2023-05-07T05:58:09;100335.31;;;17.85;79.55
45888;BME280;31595;51.418;7.572;2023-05-07T06:00:38;100332.72;;;17.96;79.91
45888;BME280;31595;51.418;7.572;2023-05-07T06:03:05;100338.59;;;18.07;79.18
45888;BME280;31595;51.418;7.572;2023-05-07T06:05:33;100340.63;;;18.26;79.20
45888;BME280;31595;51.418;7.572;2023-05-07T06:08:00;100330.63;;;18.48;79.57
45888;BME280;31595;51.418;7.572;2023-05-07T06:10:27;100333.34;;;18.64;79.33
45888;BME280;31595;51.418;7.572;2023-05-07T06:12:56;100330.97;;;18.85;78.36
45888;BME280;31595;51.418;7.572;2023-05-07T06:15:23;100328.03;;;19.01;78.43
45888;BME280;31595;51.418;7.572;2023-05-07T06:17:51;100328.81;;;19.21;77.38
45888;BME280;31595;51.418;7.572;2023-05-07T06:20:19;100337.63;;;19.43;77.27
45888;BME280;31595;51.418;7.572;2023-05-07T06:22:46;100342.00;;;19.63;76.11
45888;BME280;31595;51.418;7.572;2023-05-07T06:25:13;100342.81;;;19.64;74.80
45888;BME280;31595;51.418;7.572;2023-05-07T06:27:41;100346.28;;;19.77;73.80
45888;BME280;31595;51.418;7.572;2023-05-07T06:30:08;100345.50;;;20.06;74.90
45888;BME280;31595;51.418;7.572;2023-05-07T06:32:36;100340.97;;;20.28;75.24
45888;BME280;31595;51.418;7.572;2023-05-07T06:35:05;100333.47;;;20.43;73.86
45888;BME280;31595;51.418;7.572;2023-05-07T06:37:32;100346.25;;;20.64;73.74
45888;BME280;31595;51.418;7.572;2023-05-07T06:40:00;100338.84;;;20.86;73.19
45888;BME280;31595;51.418;7.572;2023-05-07T06:42:27;100348.00;;;21.13;73.51
45888;BME280;31595;51.418;7.572;2023-05-07T06:44:54;100347.13;;;21.05;69.78
45888;BME280;31595;51.418;7.572;2023-05-07T06:47:21;100339.13;;;21.15;70.01
45888;BME280;31595;51.418;7.572;2023-05-07T06:49:49;100345.66;;;21.22;70.37
45888;BME280;31595;51.418;7.572;2023-05-07T06:52:17;100346.34;;;21.49;70.70
45888;BME280;31595;51.418;7.572;2023-05-07T06:54:44;100350.09;;;21.61;69.61
45888;BME280;31595;51.418;7.572;2023-05-07T06:57:12;100348.56;;;21.74;69.09
45888;BME280;31595;51.418;7.572;2023-05-07T06:59:39;100350.22;;;21.79;69.27
45888;BME280;31595;51.418;7.572;2023-05-07T07:02:06;100352.69;;;21.87;69.08
45888;BME280;31595;51.418;7.572;2023-05-07T07:04:34;100345.09;;;21.99;67.87
45888;BME280;31595;51.418;7.572;2023-05-07T07:07:01;100356.06;;;22.11;68.44
45888;BME280;31595;51.418;7.572;2023-05-07T07:09:30;100347.22;;;22.16;68.76
45888;BME280;31595;51.418;7.572;2023-05-07T07:11:58;100348.53;;;22.26;68.26
45888;BME280;31595;51.418;7.572;2023-05-07T07:14:25;100348.50;;;22.29;68.08
45888;BME280;31595;51.418;7.572;2023-05-07T07:16:52;100350.59;;;22.40;67.46
45888;BME280;31595;51.418;7.572;2023-05-07T07:19:22;100358.75;;;22.48;67.83
45888;BME280;31595;51.418;7.572;2023-05-07T07:21:49;100346.56;;;22.44;67.56
45888;BME280;31595;51.418;7.572;2023-05-07T07:24:16;100344.16;;;22.50;67.14
45888;BME280;31595;51.418;7.572;2023-05-07T07:26:48;100344.56;;;22.52;66.73
45888;BME280;31595;51.418;7.572;2023-05-07T07:29:15;100348.28;;;22.70;66.59
45888;BME280;31595;51.418;7.572;2023-05-07T07:31:44;100347.09;;;22.75;65.67
45888;BME280;31595;51.418;7.572;2023-05-07T07:34:11;100347.19;;;23.07;66.76
45888;BME280;31595;51.418;7.572;2023-05-07T07:36:39;100346.00;;;23.19;66.27
45888;BME280;31595;51.418;7.572;2023-05-07T07:39:06;100341.13;;;23.34;65.26
45888;BME280;31595;51.418;7.572;2023-05-07T07:41:33;100352.09;;;23.43;65.66
45888;BME280;31595;51.418;7.572;2023-05-07T07:44:03;100353.31;;;23.63;65.17
45888;BME280;31595;51.418;7.572;2023-05-07T07:46:33;100356.97;;;23.71;65.69
45888;BME280;31595;51.418;7.572;2023-05-07T07:49:00;100359.03;;;23.78;65.45
45888;BME280;31595;51.418;7.572;2023-05-07T07:51:27;100358.19;;;23.74;65.00
45888;BME280;31595;51.418;7.572;2023-05-07T07:53:55;100356.56;;;23.73;64.95
45888;BME280;31595;51.418;7.572;2023-05-07T07:56:23;100348.88;;;23.80;64.85
45888;BME280;31595;51.418;7.572;2023-05-07T07:58:51;100343.56;;;23.89;65.53
45888;BME280;31595;51.418;7.572;2023-05-07T08:01:29;100344.38;;;23.94;65.12
45888;BME280;31595;51.418;7.572;2023-05-07T08:03:56;100345.19;;;23.90;62.16
45888;BME280;31595;51.418;7.572;2023-05-07T08:06:24;100346.81;;;23.95;63.79
45888;BME280;31595;51.418;7.572;2023-05-07T08:08:52;100342.28;;;24.16;63.89
45888;BME280;31595;51.418;7.572;2023-05-07T08:11:20;100350.81;;;24.19;62.46
45888;BME280;31595;51.418;7.572;2023-05-07T08:13:47;100356.44;;;24.34;60.13
45888;BME280;31595;51.418;7.572;2023-05-07T08:16:14;100355.63;;;24.40;62.10
45888;BME280;31595;51.418;7.572;2023-05-07T08:18:43;100364.50;;;24.67;61.24
45888;BME280;31595;51.418;7.572;2023-05-07T08:21:10;100354.25;;;24.81;60.79
45888;BME280;31595;51.418;7.572;2023-05-07T08:23:38;100357.19;;;24.66;61.07
45888;BME280;31595;51.418;7.572;2023-05-07T08:26:05;100357.56;;;24.68;62.24
45888;BME280;31595;51.418;7.572;2023-05-07T08:28:32;100353.88;;;24.79;62.75
45888;BME280;31595;51.418;7.572;2023-05-07T08:31:00;100351.81;;;24.83;61.97
45888;BME280;31595;51.418;7.572;2023-05-07T08:33:27;100360.22;;;25.08;62.62
45888;BME280;31595;51.418;7.572;2023-05-07T08:35:59;100365.72;;;25.40;60.94
45888;BME280;31595;51.418;7.572;2023-05-07T08:38:29;100372.47;;;25.61;60.12
45888;BME280;31595;51.418;7.572;2023-05-07T08:40:56;100359.47;;;26.05;59.69
45888;BME280;31595;51.418;7.572;2023-05-07T08:43:26;100365.63;;;26.38;56.09
45888;BME280;31595;51.418;7.572;2023-05-07T08:45:54;100359.31;;;26.88;55.94
45888;BME280;31595;51.418;7.572;2023-05-07T08:48:25;100365.78;;;27.97;55.60
45888;BME280;31595;51.418;7.572;2023-05-07T08:50:53;100358.28;;;29.03;52.96
45888;BME280;31595;51.418;7.572;2023-05-07T08:53:22;100360.84;;;30.16;51.48
45888;BME280;31595;51.418;7.572;2023-05-07T08:55:49;100364.03;;;31.06;51.22
45888;BME280;31595;51.418;7.572;2023-05-07T08:58:16;100364.44;;;31.68;48.17
45888;BME280;31595;51.418;7.572;2023-05-07T09:00:44;100362.50;;;32.70;44.75
45888;BME280;31595;51.418;7.572;2023-05-07T09:03:11;100351.63;;;33.86;46.07
45888;BME280;31595;51.418;7.572;2023-05-07T09:05:38;100355.81;;;34.50;44.32
45888;BME280;31595;51.418;7.572;2023-05-07T09:08:06;100347.25;;;34.92;40.90
45888;BME280;31595;51.418;7.572;2023-05-07T09:10:35;100353.47;;;35.00;43.37
45888;BME280;31595;51.418;7.572;2023-05-07T09:13:02;100353.91;;;34.47;39.33
45888;BME280;31595;51.418;7.572;2023-05-07T09:15:29;100349.09;;;34.16;43.88
45888;BME280;31595;51.418;7.572;2023-05-07T09:17:59;100340.38;;;33.79;43.74
45888;BME280;31595;51.418;7.572;2023-05-07T09:20:30;100339.72;;;33.84;41.75
45888;BME280;31595;51.418;7.572;2023-05-07T09:22:57;100342.94;;;33.95;42.11
45888;BME280;31595;51.418;7.572;2023-05-07T09:25:28;100343.94;;;34.20;40.72
45888;BME280;31595;51.418;7.572;2023-05-07T09:27:57;100348.91;;;34.01;41.76
45888;BME280;31595;51.418;7.572;2023-05-07T09:30:27;100344.56;;;34.61;40.78
45888;BME280;31595;51.418;7.572;2023-05-07T09:32:55;100341.59;;;35.41;41.83
45888;BME280;31595;51.418;7.572;2023-05-07T09:35:23;100340.94;;;36.87;39.45
45888;BME280;31595;51.418;7.572;2023-05-07T09:37:53;100339.34;;;37.51;34.83
45888;BME280;31595;51.418;7.572;2023-05-07T09:40:21;100344.63;;;36.72;36.52
45888;BME280;31595;51.418;7.572;2023-05-07T09:42:50;100350.44;;;36.72;35.69
45888;BME280;31595;51.418;7.572;2023-05-07T09:45:22;100343.06;;;37.92;30.92
45888;BME280;31595;51.418;7.572;2023-05-07T09:47:53;100339.19;;;39.64;33.14
45888;BME280;31595;51.418;7.572;2023-05-07T09:50:22;100338.22;;;39.03;27.75
45888;BME280;31595;51.418;7.572;2023-05-07T09:52:51;100340.31;;;39.72;26.91
45888;BME280;31595;51.418;7.572;2023-05-07T09:55:19;100346.00;;;39.92;24.37
45888;BME280;31595;51.418;7.572;2023-05-07T09:57:48;100332.72;;;40.80;27.68
45888;BME280;31595;51.418;7.572;2023-05-07T10:00:18;100340.66;;;42.28;25.97
45888;BME280;31595;51.418;7.572;2023-05-07T10:02:49;100333.84;;;43.22;22.58
45888;BME280;31595;51.418;7.572;2023-05-07T10:05:18;100335.44;;;43.23;23.55
45888;BME280;31595;51.418;7.572;2023-05-07T10:07:46;100338.78;;;42.72;23.29
45888;BME280;31595;51.418;7.572;2023-05-07T10:10:14;100338.19;;;42.37;21.43
45888;BME280;31595;51.418;7.572;2023-05-07T10:12:42;100337.81;;;42.11;22.09
45888;BME280;31595;51.418;7.572;2023-05-07T10:15:10;100334.19;;;41.82;22.88
45888;BME280;31595;51.418;7.572;2023-05-07T10:17:39;100345.97;;;41.60;23.02
45888;BME280;31595;51.418;7.572;2023-05-07T10:20:08;100339.09;;;41.29;22.68
45888;BME280;31595;51.418;7.572;2023-05-07T10:22:38;100339.72;;;41.91;21.64
45888;BME280;31595;51.418;7.572;2023-05-07T10:25:14;100333.19;;;43.34;20.68
45888;BME280;31595;51.418;7.572;2023-05-07T10:27:44;100324.72;;;43.31;20.96
45888;BME280;31595;51.418;7.572;2023-05-07T10:30:26;100336.97;;;41.07;21.76
45888;BME280;31595;51.418;7.572;2023-05-07T10:32:59;100334.84;;;39.10;23.39
45888;BME280;31595;51.418;7.572;2023-05-07T10:35:44;100336.13;;;38.05;24.23
45888;BME280;31595;51.418;7.572;2023-05-07T10:38:12;100347.31;;;37.06;25.36
45888;BME280;31595;51.418;7.572;2023-05-07T10:40:39;100344.59;;;36.43;25.99
45888;BME280;31595;51.418;7.572;2023-05-07T10:43:07;100353.28;;;35.80;26.99
45888;BME280;31595;51.418;7.572;2023-05-07T10:45:34;100356.41;;;35.43;26.92
45888;BME280;31595;51.418;7.572;2023-05-07T10:48:09;100354.38;;;35.25;27.47
45888;BME280;31595;51.418;7.572;2023-05-07T10:50:38;100357.25;;;34.82;27.78
45888;BME280;31595;51.418;7.572;2023-05-07T10:53:22;100356.88;;;34.99;28.61
45888;BME280;31595;51.418;7.572;2023-05-07T10:56:25;100356.19;;;35.04;28.79
45888;BME280;31595;51.418;7.572;2023-05-07T10:59:01;100342.13;;;35.30;27.61
45888;BME280;31595;51.418;7.572;2023-05-07T11:02:09;100343.25;;;35.56;28.13
45888;BME280;31595;51.418;7.572;2023-05-07T11:04:37;100349.59;;;35.22;27.42
45888;BME280;31595;51.418;7.572;2023-05-07T11:07:30;100351.19;;;34.15;29.01
45888;BME280;31595;51.418;7.572;2023-05-07T11:10:04;100338.56;;;33.72;30.06
45888;BME280;31595;51.418;7.572;2023-05-07T11:12:52;100343.72;;;33.28;30.11
45888;BME280;31595;51.418;7.572;2023-05-07T11:15:36;100349.56;;;33.06;30.71
45888;BME280;31595;51.418;7.572;2023-05-07T11:18:05;100340.16;;;32.61;31.27
45888;BME280;31595;51.418;7.572;2023-05-07T11:23:54;100349.66;;;32.05;32.31
45888;BME280;31595;51.418;7.572;2023-05-07T11:26:21;100344.09;;;31.63;33.05
45888;BME280;31595;51.418;7.572;2023-05-07T11:28:49;100341.19;;;31.37;33.32
45888;BME280;31595;51.418;7.572;2023-05-07T11:31:21;100342.94;;;31.09;34.26
45888;BME280;31595;51.418;7.572;2023-05-07T11:33:50;100341.75;;;30.81;34.49
45888;BME280;31595;51.418;7.572;2023-05-07T11:36:18;100344.53;;;30.42;34.84
45888;BME280;31595;51.418;7.572;2023-05-07T11:38:46;100350.41;;;29.93;35.75
45888;BME280;31595;51.418;7.572;2023-05-07T11:41:15;100354.97;;;29.90;35.34
45888;BME280;31595;51.418;7.572;2023-05-07T11:43:59;100345.47;;;30.52;34.69
45888;BME280;31595;51.418;7.572;2023-05-07T11:46:27;100344.28;;;31.68;34.08
45888;BME280;31595;51.418;7.572;2023-05-07T11:48:56;100350.31;;;31.61;33.74
45888;BME280;31595;51.418;7.572;2023-05-07T11:51:25;100358.56;;;31.72;33.47
45888;BME280;31595;51.418;7.572;2023-05-07T11:53:53;100360.56;;;32.10;33.29
45888;BME280;31595;51.418;7.572;2023-05-07T11:56:21;100354.06;;;34.06;30.49
45888;BME280;31595;51.418;7.572;2023-05-07T11:58:48;100347.78;;;34.63;29.90
45888;BME280;31595;51.418;7.572;2023-05-07T12:01:17;100348.88;;;34.56;28.95
45888;BME280;31595;51.418;7.572;2023-05-07T12:03:45;100346.44;;;35.92;27.57
45888;BME280;31595;51.418;7.572;2023-05-07T12:06:15;100350.44;;;35.94;27.04
45888;BME280;31595;51.418;7.572;2023-05-07T12:08:44;100351.50;;;35.82;27.77
45888;BME280;31595;51.418;7.572;2023-05-07T12:11:13;100349.81;;;35.90;27.02
45888;BME280;31595;51.418;7.572;2023-05-07T12:13:41;100356.50;;;36.06;28.19
45888;BME280;31595;51.418;7.572;2023-05-07T12:16:08;100358.34;;;35.94;27.18
45888;BME280;31595;51.418;7.572;2023-05-07T12:18:36;100356.91;;;36.37;26.50
45888;BME280;31595;51.418;7.572;2023-05-07T12:21:05;100356.16;;;35.55;27.96
45888;BME280;31595;51.418;7.572;2023-05-07T12:23:35;100356.81;;;34.65;29.71
45888;BME280;31595;51.418;7.572;2023-05-07T12:26:03;100364.78;;;33.96;30.58
45888;BME280;31595;51.418;7.572;2023-05-07T12:28:32;100367.00;;;33.24;31.49
45888;BME280;31595;51.418;7.572;2023-05-07T12:31:03;100360.13;;;32.78;31.97
45888;BME280;31595;51.418;7.572;2023-05-07T12:33:31;100371.25;;;32.22;32.88
45888;BME280;31595;51.418;7.572;2023-05-07T12:36:03;100364.47;;;31.43;33.90
45888;BME280;31595;51.418;7.572;2023-05-07T12:38:36;100360.66;;;30.52;35.53
45888;BME280;31595;51.418;7.572;2023-05-07T12:41:06;100366.63;;;29.83;36.90
45888;BME280;31595;51.418;7.572;2023-05-07T12:43:33;100363.91;;;29.27;37.90
45888;BME280;31595;51.418;7.572;2023-05-07T12:46:03;100372.25;;;28.65;38.44
45888;BME280;31595;51.418;7.572;2023-05-07T12:48:31;100373.22;;;28.14;39.38
45888;BME280;31595;51.418;7.572;2023-05-07T12:51:00;100375.78;;;27.85;40.21
45888;BME280;31595;51.418;7.572;2023-05-07T12:53:28;100385.28;;;27.55;41.42
45888;BME280;31595;51.418;7.572;2023-05-07T12:55:58;100377.41;;;27.36;41.90
45888;BME280;31595;51.418;7.572;2023-05-07T12:58:26;100384.34;;;27.07;41.94
45888;BME280;31595;51.418;7.572;2023-05-07T13:00:55;100379.88;;;26.76;42.50